| Date | Time | Temp. (oF) | Dew Point (oF) | Rel. Hum. (%) | Press. (in.) | Wind Dir. | Wind Speed (mph) | Hourly Rainfall (in.) |
|
|---|---|---|---|---|---|---|---|---|---|
| 1 | 11/08 | 00:00 | 41 | 38 | 89 | 30.12 | N | 0 | 0.00 |
| 2 | 11/07 | 23:00 | 44 | 40 | 86 | 30.11 | SE | 2 | 0.00 |
| 3 | 11/07 | 22:00 | 46 | 41 | 83 | 30.11 | S | 4 | 0.00 |
| 4 | 11/07 | 21:00 | 47 | 40 | 79 | 30.12 | SSE | 4 | 0.00 |
| 5 | 11/07 | 20:00 | 48 | 40 | 74 | 30.12 | S | 4 | 0.00 |
| 6 | 11/07 | 19:00 | 49 | 39 | 69 | 30.13 | SSW | 5 | 0.00 |
| 7 | 11/07 | 18:00 | 49 | 37 | 65 | 30.12 | SSE | 2 | 0.00 |
| 8 | 11/07 | 17:00 | 52 | 38 | 60 | 30.09 | SW | 5 | 0.00 |
| 9 | 11/07 | 16:00 | 54 | 39 | 57 | 30.08 | SSW | 4 | 0.00 |
| 10 | 11/07 | 15:00 | 56 | 39 | 53 | 30.10 | SSE | 4 | 0.00 |
| 11 | 11/07 | 14:00 | 56 | 38 | 51 | 30.12 | SSW | 9 | 0.00 |
| 12 | 11/07 | 13:00 | 54 | 36 | 51 | 30.15 | SSW | 5 | 0.00 |
| 13 | 11/07 | 12:00 | 52 | 34 | 52 | 30.20 | S | 7 | 0.00 |
| 14 | 11/07 | 11:00 | 49 | 36 | 62 | 30.24 | SSW | 7 | 0.00 |
| 15 | 11/07 | 10:00 | 44 | 35 | 73 | 30.26 | SW | 0 | 0.00 |
| 16 | 11/07 | 09:00 | 36 | 33 | 92 | 30.29 | NE | 0 | 0.00 |
| 17 | 11/07 | 08:00 | 31 | 31 | 100 | 30.31 | NNE | 0 | 0.00 |
| 18 | 11/07 | 07:00 | 25 | 24 | 99 | 30.31 | WSW | 0 | 0.00 |
| 19 | 11/07 | 06:00 | 26 | 25 | 98 | 30.31 | WSW | 0 | 0.00 |
| 20 | 11/07 | 05:00 | 26 | 25 | 97 | 30.31 | NNW | 0 | 0.00 |
| 21 | 11/07 | 04:00 | 26 | 25 | 97 | 30.31 | NNW | 0 | 0.00 |
| 22 | 11/07 | 03:00 | 27 | 26 | 96 | 30.32 | NNW | 0 | 0.00 |
| 23 | 11/07 | 02:00 | 28 | 26 | 95 | 30.31 | NNW | 0 | 0.00 |
| 24 | 11/07 | 01:00 | 28 | 25 | 92 | 30.32 | ENE | 0 | 0.00 |